createdAt,value
2019-01-18T00:02:01.362Z,99749.02
2019-01-18T00:04:51.071Z,99758.09
2019-01-18T00:07:43.787Z,99757.02
2019-01-18T00:10:32.795Z,99762.78
2019-01-18T00:16:27.095Z,99766.86
2019-01-18T00:22:23.025Z,99775.59
2019-01-18T00:25:13.966Z,99769.09
2019-01-18T00:28:20.142Z,99783.97
2019-01-18T00:31:15.127Z,99788.00
2019-01-18T00:34:02.979Z,99805.47
2019-01-18T00:36:53.122Z,99809.36
2019-01-18T00:39:40.535Z,99813.73
2019-01-18T00:42:29.177Z,99817.16
2019-01-18T00:45:16.527Z,99825.43
2019-01-18T00:48:04.148Z,99828.44
2019-01-18T00:50:51.540Z,99834.13
2019-01-18T00:53:42.479Z,99834.48
2019-01-18T00:56:27.829Z,99841.42
2019-01-18T00:59:24.790Z,99844.06
2019-01-18T01:02:12.453Z,99850.57
2019-01-18T01:05:00.293Z,99852.35
2019-01-18T01:07:48.004Z,99861.88
2019-01-18T01:10:35.198Z,99865.42
2019-01-18T01:13:23.081Z,99869.39
2019-01-18T01:16:10.822Z,99870.84
2019-01-18T01:18:58.097Z,99873.16
2019-01-18T01:21:45.741Z,99878.36
2019-01-18T01:24:32.945Z,99882.75
2019-01-18T01:27:20.198Z,99892.53
2019-01-18T01:30:11.804Z,99894.27
2019-01-18T01:33:07.289Z,99905.59
2019-01-18T01:35:54.608Z,99898.95
2019-01-18T01:38:41.825Z,99904.58
2019-01-18T01:41:28.955Z,99912.73
2019-01-18T01:44:16.547Z,99923.45
2019-01-18T01:47:03.668Z,99930.72
2019-01-18T01:49:51.073Z,99918.47
2019-01-18T01:52:38.859Z,99922.95
2019-01-18T01:55:33.835Z,99927.40
2019-01-18T01:58:23.610Z,99932.58
2019-01-18T02:01:12.774Z,99939.94
2019-01-18T02:04:00.529Z,99938.59
2019-01-18T02:06:47.823Z,99941.27
2019-01-18T02:09:35.096Z,99941.09
2019-01-18T02:12:22.612Z,99955.00
2019-01-18T02:15:10.325Z,99963.26
2019-01-18T02:17:57.965Z,99962.13
2019-01-18T02:20:45.370Z,99968.77
2019-01-18T02:23:32.955Z,99977.44
2019-01-18T02:26:21.816Z,99989.27
2019-01-18T02:29:09.601Z,99996.94
2019-01-18T02:31:57.645Z,100000.05
2019-01-18T02:34:47.527Z,100001.48
2019-01-18T02:37:36.177Z,100010.23
2019-01-18T02:40:23.583Z,100027.40
2019-01-18T02:43:13.864Z,100031.29
2019-01-18T02:46:02.330Z,100033.31
2019-01-18T02:48:51.495Z,100051.77
2019-01-18T02:51:38.506Z,100060.11
2019-01-18T02:54:25.903Z,100082.27
2019-01-18T02:57:14.750Z,100085.45
2019-01-18T03:00:05.327Z,100092.93
2019-01-18T03:02:52.453Z,100091.13
2019-01-18T03:05:40.207Z,100104.00
2019-01-18T03:08:30.587Z,100108.95
2019-01-18T03:11:19.890Z,100116.17
2019-01-18T03:14:08.500Z,100117.17
2019-01-18T03:20:03.129Z,100134.73
2019-01-18T03:22:51.806Z,100143.86
2019-01-18T03:25:40.197Z,100154.29
2019-01-18T03:28:28.403Z,100154.29
2019-01-18T03:31:16.217Z,100161.70
2019-01-18T03:34:06.995Z,100172.55
2019-01-18T03:36:55.865Z,100176.45
2019-01-18T03:39:47.874Z,100183.38
2019-01-18T03:42:37.355Z,100191.62
2019-01-18T03:45:25.543Z,100187.73
2019-01-18T03:48:16.264Z,100193.81
2019-01-18T03:51:05.857Z,100203.04
2019-01-18T03:53:54.624Z,100213.44
2019-01-18T03:56:42.025Z,100216.03
2019-01-18T03:59:31.892Z,100215.23
2019-01-18T04:02:19.982Z,100223.88
2019-01-18T04:05:09.914Z,100234.70
2019-01-18T04:07:58.900Z,100237.25
2019-01-18T04:10:47.370Z,100248.55
2019-01-18T04:13:44.987Z,100256.30
2019-01-18T04:16:32.637Z,100261.13
2019-01-18T04:22:32.596Z,100271.47
2019-01-18T04:25:26.804Z,100286.18
2019-01-18T04:28:25.218Z,100293.57
2019-01-18T04:31:12.567Z,100292.73
2019-01-18T04:34:00.249Z,100302.97
2019-01-18T04:36:56.036Z,100303.17
2019-01-18T04:42:55.987Z,100307.81
2019-01-18T04:45:43.706Z,100306.96
2019-01-18T04:48:32.024Z,100319.36
2019-01-18T04:51:19.553Z,100324.83
2019-01-18T04:54:14.967Z,100338.30
2019-01-18T04:57:03.117Z,100335.58
2019-01-18T04:59:52.781Z,100353.03
2019-01-18T05:02:46.023Z,100354.48
2019-01-18T05:05:35.047Z,100356.58
2019-01-18T05:08:29.483Z,100362.41
2019-01-18T05:11:17.582Z,100374.95
2019-01-18T05:14:05.304Z,100383.86
2019-01-18T05:16:54.496Z,100389.73
2019-01-18T05:19:41.843Z,100400.32
2019-01-18T05:22:30.392Z,100407.42
2019-01-18T05:25:18.529Z,100413.21
2019-01-18T05:28:06.079Z,100414.24
2019-01-18T05:30:55.728Z,100426.09
2019-01-18T05:33:46.444Z,100432.70
2019-01-18T05:36:34.247Z,100438.85
2019-01-18T05:39:22.372Z,100445.33
2019-01-18T05:42:10.032Z,100447.56
2019-01-18T05:44:57.949Z,100442.96
2019-01-18T05:47:45.908Z,100455.16
2019-01-18T05:50:35.132Z,100455.45
2019-01-18T05:53:23.047Z,100465.59
2019-01-18T05:56:10.876Z,100467.00
2019-01-18T05:58:58.566Z,100476.23
2019-01-18T06:04:54.122Z,100484.67
2019-01-18T06:07:42.215Z,100502.53
2019-01-18T06:10:33.395Z,100506.05
2019-01-18T06:13:21.018Z,100513.49
2019-01-18T06:19:16.841Z,100525.73
2019-01-18T06:22:04.902Z,100527.07
2019-01-18T06:25:01.401Z,100537.94
2019-01-18T06:27:51.964Z,100542.30
2019-01-18T06:30:39.846Z,100550.58
2019-01-18T06:33:27.268Z,100551.05
2019-01-18T06:36:14.948Z,100559.32
2019-01-18T06:39:02.188Z,100570.19
2019-01-18T06:41:50.047Z,100577.72
2019-01-18T06:44:37.960Z,100582.63
2019-01-18T06:47:25.601Z,100584.48
2019-01-18T06:50:13.412Z,100594.95
2019-01-18T06:53:00.883Z,100608.45
2019-01-18T06:55:48.229Z,100611.70
2019-01-18T06:58:38.795Z,100620.05
2019-01-18T07:01:33.369Z,100622.30
2019-01-18T07:04:31.671Z,100634.50
2019-01-18T07:07:22.169Z,100647.54
2019-01-18T07:10:12.250Z,100655.78
2019-01-18T07:13:00.086Z,100663.63
2019-01-18T07:15:51.062Z,100663.22
2019-01-18T07:18:38.533Z,100669.62
2019-01-18T07:21:27.200Z,100681.77
2019-01-18T07:24:16.740Z,100682.70
2019-01-18T07:27:04.578Z,100684.90
2019-01-18T07:29:53.413Z,100691.83
2019-01-18T07:32:41.353Z,100701.81
2019-01-18T07:35:28.773Z,100708.72
2019-01-18T07:38:27.223Z,100713.05
2019-01-18T07:47:32.560Z,100724.52
2019-01-18T07:50:20.448Z,100736.75
2019-01-18T08:08:43.382Z,100757.98
2019-01-18T08:11:34.285Z,100768.50
2019-01-18T08:14:24.358Z,100777.68
2019-01-18T08:17:11.964Z,100782.47
2019-01-18T08:19:59.915Z,100792.42
2019-01-18T08:22:57.724Z,100801.91
2019-01-18T08:25:45.074Z,100811.42
2019-01-18T08:28:33.846Z,100819.19
2019-01-18T08:31:28.710Z,100817.42
2019-01-18T08:37:22.562Z,100839.89
2019-01-18T08:40:13.394Z,100841.20
2019-01-18T08:43:01.875Z,100842.02
2019-01-18T08:45:51.076Z,100851.96
2019-01-18T08:48:39.724Z,100855.83
2019-01-18T08:51:29.082Z,100861.44
2019-01-18T08:54:16.628Z,100861.80
2019-01-18T08:57:04.162Z,100873.08
2019-01-18T08:59:51.307Z,100876.92
2019-01-18T09:02:39.029Z,100875.16
2019-01-18T09:05:26.320Z,100883.38
2019-01-18T09:08:14.147Z,100882.81
2019-01-18T09:11:03.580Z,100889.03
2019-01-18T09:13:51.619Z,100896.45
2019-01-18T09:16:41.193Z,100893.43
2019-01-18T09:19:29.942Z,100905.17
2019-01-18T09:22:17.957Z,100907.84
2019-01-18T09:25:05.113Z,100910.94
2019-01-18T09:27:53.752Z,100905.02
2019-01-18T09:30:41.323Z,100916.77
2019-01-18T09:33:30.453Z,100918.00
2019-01-18T09:36:18.345Z,100919.63
2019-01-18T09:39:07.803Z,100924.73
2019-01-18T09:41:57.898Z,100921.13
2019-01-18T09:44:49.997Z,100924.98
2019-01-18T09:47:37.447Z,100925.90
2019-01-18T09:50:25.231Z,100936.17
2019-01-18T09:53:14.194Z,100936.19
2019-01-18T09:59:09.817Z,100945.21
2019-01-18T10:01:57.320Z,100937.78
2019-01-18T10:04:45.884Z,100943.84
2019-01-18T10:10:40.694Z,100938.33
2019-01-18T10:13:27.888Z,100938.17
2019-01-18T10:16:15.443Z,100938.40
2019-01-18T10:19:03.693Z,100938.70
2019-01-18T10:21:51.072Z,100944.63
2019-01-18T10:24:41.128Z,100943.69
2019-01-18T10:27:32.143Z,100942.64
2019-01-18T10:30:25.749Z,100936.89
2019-01-18T10:33:16.010Z,100936.92
2019-01-18T10:36:03.722Z,100940.77
2019-01-18T10:38:52.452Z,100952.81
2019-01-18T10:41:40.236Z,100948.89
2019-01-18T10:44:28.100Z,100942.98
2019-01-18T10:47:16.114Z,100947.30
2019-01-18T10:50:04.068Z,100950.31
2019-01-18T10:52:52.184Z,100954.53
2019-01-18T10:55:42.976Z,100960.75
2019-01-18T10:58:30.532Z,100952.05
2019-01-18T11:01:19.670Z,100962.06
2019-01-18T11:04:12.575Z,100958.02
2019-01-18T11:10:10.518Z,100951.13
2019-01-18T11:12:57.520Z,100950.81
2019-01-18T11:15:44.855Z,100952.12
2019-01-18T11:18:33.642Z,100956.03
2019-01-18T11:21:21.423Z,100956.51
2019-01-18T11:24:09.648Z,100954.30
2019-01-18T11:30:14.469Z,100963.34
2019-01-18T11:33:04.706Z,100961.61
2019-01-18T11:35:52.707Z,100961.66
2019-01-18T11:38:46.083Z,100965.05
2019-01-18T11:41:33.435Z,100964.17
2019-01-18T11:44:22.500Z,100971.15
2019-01-18T11:47:10.457Z,100972.77
2019-01-18T11:49:57.858Z,100964.47
2019-01-18T11:52:45.815Z,100961.32
2019-01-18T11:55:34.087Z,100965.35
2019-01-18T11:58:25.507Z,100970.61
2019-01-18T12:01:14.426Z,100976.35
2019-01-18T12:04:02.156Z,100977.21
2019-01-18T12:06:49.682Z,100982.77
2019-01-18T12:09:39.514Z,100987.88
2019-01-18T12:12:29.411Z,100975.55
2019-01-18T12:15:16.712Z,100984.16
2019-01-18T12:18:06.405Z,100987.02
2019-01-18T12:24:08.370Z,100985.09
2019-01-18T12:26:55.975Z,100977.64
2019-01-18T12:29:53.841Z,100982.70
2019-01-18T12:32:43.706Z,100979.98
2019-01-18T12:35:37.420Z,100985.73
2019-01-18T12:38:29.298Z,100987.75
2019-01-18T12:41:20.847Z,100978.73
2019-01-18T12:44:10.109Z,100980.20
2019-01-18T12:46:59.014Z,100984.09
2019-01-18T12:52:55.602Z,100973.18
2019-01-18T12:55:48.762Z,100974.34
2019-01-18T12:58:38.044Z,100977.00
2019-01-18T13:01:39.153Z,100980.98
2019-01-18T13:04:30.604Z,100974.52
2019-01-18T13:07:21.254Z,100972.52
2019-01-18T13:10:12.104Z,100978.58
2019-01-18T13:13:00.813Z,100980.64
2019-01-18T13:15:49.931Z,100981.12
2019-01-18T13:18:37.343Z,100974.83
2019-01-18T13:21:38.350Z,100981.09
2019-01-18T13:24:31.045Z,100984.61
2019-01-18T13:27:28.800Z,100986.77
2019-01-18T13:33:26.894Z,100975.05
2019-01-18T13:39:27.228Z,100980.98
2019-01-18T13:42:16.430Z,100980.60
2019-01-18T13:45:04.122Z,100982.33
2019-01-18T13:48:03.641Z,100979.45
2019-01-18T13:50:56.973Z,100984.41
2019-01-18T13:53:49.287Z,100984.91
2019-01-18T13:56:39.911Z,100988.16
2019-01-18T13:59:29.921Z,100991.45
2019-01-18T14:02:19.928Z,100994.30
2019-01-18T14:08:20.303Z,100993.66
2019-01-18T14:11:07.991Z,100995.50
2019-01-18T14:14:02.320Z,100999.16
2019-01-18T14:16:56.463Z,100996.61
2019-01-18T14:19:47.298Z,100991.57
2019-01-18T14:22:38.184Z,100996.19
2019-01-18T14:25:27.413Z,100989.56
2019-01-18T14:28:16.715Z,100991.95
2019-01-18T14:31:09.475Z,100998.59
2019-01-18T14:34:02.884Z,100994.73
2019-01-18T14:37:03.257Z,100998.41
2019-01-18T14:39:51.803Z,100996.84
2019-01-18T14:42:39.302Z,101003.63
2019-01-18T14:45:33.217Z,101002.55
2019-01-18T14:54:57.970Z,101004.59
2019-01-18T14:57:53.098Z,101000.80
2019-01-18T15:00:40.767Z,101004.34
2019-01-18T15:03:32.146Z,101001.81
2019-01-18T15:06:32.022Z,101007.13
2019-01-18T15:09:38.762Z,101012.95
2019-01-18T15:12:28.897Z,101011.80
2019-01-18T15:15:18.842Z,101011.94
2019-01-18T15:18:06.179Z,101012.91
2019-01-18T15:20:54.439Z,101010.42
2019-01-18T15:23:46.533Z,101012.67
2019-01-18T15:26:38.137Z,101019.72
2019-01-18T15:32:35.928Z,101022.61
2019-01-18T15:38:39.482Z,101020.17
2019-01-18T15:41:28.582Z,101023.72
2019-01-18T15:44:23.252Z,101020.30
2019-01-18T15:47:12.882Z,101020.80
2019-01-18T15:50:03.181Z,101020.42
2019-01-18T15:53:08.143Z,101023.55
2019-01-18T15:55:55.804Z,101019.90
2019-01-18T15:58:44.036Z,101029.98
2019-01-18T16:01:32.736Z,101027.94
2019-01-18T16:04:27.935Z,101031.48
2019-01-18T16:07:19.477Z,101036.76
2019-01-18T16:13:21.602Z,101046.81
2019-01-18T16:16:21.428Z,101046.42
2019-01-18T16:19:11.776Z,101039.94
2019-01-18T16:22:00.719Z,101044.28
2019-01-18T16:24:49.346Z,101048.62
2019-01-18T16:27:37.184Z,101049.50
2019-01-18T16:30:26.492Z,101047.78
2019-01-18T16:33:23.324Z,101047.77
2019-01-18T16:36:07.630Z,101045.62
2019-01-18T16:38:56.223Z,101055.19
2019-01-18T16:41:43.605Z,101048.67
2019-01-18T16:44:32.793Z,101050.09
2019-01-18T16:47:20.489Z,101049.05
2019-01-18T16:50:07.939Z,101051.29
2019-01-18T16:52:59.387Z,101049.56
2019-01-18T16:55:57.060Z,101047.84
2019-01-18T16:58:44.771Z,101057.86
2019-01-18T17:01:32.108Z,101045.28
2019-01-18T17:04:19.717Z,101039.23
2019-01-18T17:07:07.241Z,101040.97
2019-01-18T17:09:54.419Z,101037.52
2019-01-18T17:12:41.906Z,101040.98
2019-01-18T17:15:29.569Z,101039.70
2019-01-18T17:18:16.980Z,101046.22
2019-01-18T17:21:04.350Z,101042.31
2019-01-18T17:23:51.852Z,101044.92
2019-01-18T17:26:39.395Z,101042.77
2019-01-18T17:29:26.550Z,101044.06
2019-01-18T17:32:13.932Z,101043.03
2019-01-18T17:35:01.515Z,101046.64
2019-01-18T17:40:57.550Z,101053.16
2019-01-18T17:43:53.413Z,101049.28
2019-01-18T17:46:52.508Z,101047.09
2019-01-18T17:49:58.743Z,101058.66
2019-01-18T17:53:07.940Z,101060.97
2019-01-18T17:56:02.591Z,101057.51
2019-01-18T17:59:20.835Z,101069.20
2019-01-18T18:02:32.790Z,101064.89
2019-01-18T18:05:32.571Z,101066.05
2019-01-18T18:08:33.788Z,101069.62
2019-01-18T18:17:55.776Z,101064.02
2019-01-18T18:21:21.532Z,101067.92
2019-01-18T18:24:11.373Z,101065.77
2019-01-18T18:27:36.120Z,101067.36
2019-01-18T18:30:33.094Z,101065.11
2019-01-18T18:33:23.548Z,101067.44
2019-01-18T18:36:29.873Z,101072.67
2019-01-18T18:39:26.366Z,101063.38
2019-01-18T18:45:48.135Z,101074.84
2019-01-18T18:48:35.378Z,101080.80
2019-01-18T18:51:22.943Z,101083.08
2019-01-18T18:54:25.433Z,101086.97
2019-01-18T18:57:21.924Z,101085.23
2019-01-18T19:00:18.855Z,101088.29
2019-01-18T19:06:29.063Z,101088.72
2019-01-18T19:19:31.889Z,101088.72
2019-01-18T19:32:22.180Z,101099.13
2019-01-18T19:38:49.548Z,101106.88
2019-01-18T20:21:42.669Z,101125.08
2019-01-18T20:24:48.594Z,101117.72
2019-01-18T20:44:23.026Z,101135.96
2019-01-18T20:50:31.665Z,101145.08
2019-01-18T20:53:43.597Z,101149.83
2019-01-18T21:00:02.609Z,101140.71
2019-01-18T21:32:38.566Z,101139.78
2019-01-18T21:35:28.467Z,101143.36
2019-01-18T21:38:33.668Z,101140.55
2019-01-18T21:41:28.543Z,101142.34
2019-01-18T21:44:29.668Z,101149.59
2019-01-18T21:47:37.254Z,101150.50
2019-01-18T22:03:57.409Z,101141.31
2019-01-18T22:16:34.630Z,101148.34
2019-01-18T22:19:40.466Z,101154.42
2019-01-18T22:22:35.454Z,101154.43
2019-01-18T22:25:31.387Z,101145.75
2019-01-18T22:28:25.017Z,101152.59
2019-01-18T22:31:43.775Z,101153.50
2019-01-18T22:35:01.658Z,101150.04
2019-01-18T22:37:48.702Z,101147.05
2019-01-18T22:40:39.001Z,101146.16
2019-01-18T22:47:19.081Z,101147.48
2019-01-18T22:50:18.841Z,101147.83
2019-01-18T22:56:26.638Z,101147.92
2019-01-18T22:59:16.704Z,101144.94
2019-01-18T23:02:20.148Z,101141.36
2019-01-18T23:12:25.884Z,101140.16
2019-01-18T23:15:21.588Z,101138.08
2019-01-18T23:21:57.632Z,101143.17
2019-01-18T23:24:58.431Z,101141.47
2019-01-18T23:27:55.001Z,101148.05
2019-01-18T23:30:43.455Z,101139.64
2019-01-18T23:33:49.396Z,101143.16
2019-01-18T23:36:38.185Z,101141.86
2019-01-18T23:39:28.394Z,101141.44
2019-01-18T23:42:22.182Z,101147.53
2019-01-18T23:48:29.481Z,101137.16
2019-01-18T23:51:19.799Z,101133.58
2019-01-18T23:54:13.874Z,101135.36
2019-01-18T23:57:20.782Z,101132.80
